sensor_id;sensor_type;location;lat;lon;timestamp;pressure;altitude;pressure_sealevel;temperature;humidity
10668;BME280;5382;42.136;24.796;2023-08-20T00:01:06;99963.88;;;24.51;100.00
10668;BME280;5382;42.136;24.796;2023-08-20T00:03:36;99967.41;;;24.52;100.00
10668;BME280;5382;42.136;24.796;2023-08-20T00:06:04;99972.41;;;24.48;100.00
10668;BME280;5382;42.136;24.796;2023-08-20T00:08:31;99967.81;;;24.49;100.00
10668;BME280;5382;42.136;24.796;2023-08-20T00:10:59;99963.63;;;24.46;100.00
10668;BME280;5382;42.136;24.796;2023-08-20T00:13:26;99968.00;;;24.47;100.00
10668;BME280;5382;42.136;24.796;2023-08-20T00:15:54;99966.16;;;24.48;100.00
10668;BME280;5382;42.136;24.796;2023-08-20T00:18:21;99954.25;;;24.42;100.00
10668;BME280;5382;42.136;24.796;2023-08-20T00:20:48;99962.72;;;24.39;100.00
10668;BME280;5382;42.136;24.796;2023-08-20T00:23:16;99957.72;;;24.36;100.00
10668;BME280;5382;42.136;24.796;2023-08-20T00:25:43;99954.78;;;24.31;100.00
10668;BME280;5382;42.136;24.796;2023-08-20T00:28:12;99947.94;;;24.35;100.00
10668;BME280;5382;42.136;24.796;2023-08-20T00:30:39;99948.97;;;24.34;100.00
10668;BME280;5382;42.136;24.796;2023-08-20T00:33:06;99941.91;;;24.33;100.00
10668;BME280;5382;42.136;24.796;2023-08-20T00:35:33;99948.53;;;24.30;100.00
10668;BME280;5382;42.136;24.796;2023-08-20T00:37:59;99947.91;;;24.28;100.00
10668;BME280;5382;42.136;24.796;2023-08-20T00:40:27;99942.66;;;24.20;100.00
10668;BME280;5382;42.136;24.796;2023-08-20T00:42:54;99939.53;;;24.16;100.00
10668;BME280;5382;42.136;24.796;2023-08-20T00:45:22;99935.88;;;24.03;100.00
10668;BME280;5382;42.136;24.796;2023-08-20T00:47:49;99940.88;;;24.06;100.00
10668;BME280;5382;42.136;24.796;2023-08-20T00:50:16;99943.88;;;23.89;100.00
10668;BME280;5382;42.136;24.796;2023-08-20T00:52:44;99924.72;;;23.84;100.00
10668;BME280;5382;42.136;24.796;2023-08-20T00:55:11;99946.50;;;24.04;100.00
10668;BME280;5382;42.136;24.796;2023-08-20T00:57:39;99947.38;;;24.11;100.00
10668;BME280;5382;42.136;24.796;2023-08-20T01:00:08;99911.44;;;23.89;100.00
10668;BME280;5382;42.136;24.796;2023-08-20T01:02:38;99946.81;;;24.23;100.00
10668;BME280;5382;42.136;24.796;2023-08-20T01:05:07;99941.00;;;24.26;100.00
10668;BME280;5382;42.136;24.796;2023-08-20T01:07:42;99948.72;;;24.29;100.00
10668;BME280;5382;42.136;24.796;2023-08-20T01:10:17;99945.41;;;24.27;100.00
10668;BME280;5382;42.136;24.796;2023-08-20T01:12:45;99947.13;;;24.34;100.00
10668;BME280;5382;42.136;24.796;2023-08-20T01:15:12;99943.19;;;24.44;100.00
10668;BME280;5382;42.136;24.796;2023-08-20T01:17:42;99938.94;;;24.56;100.00
10668;BME280;5382;42.136;24.796;2023-08-20T01:20:10;99942.47;;;24.56;100.00
10668;BME280;5382;42.136;24.796;2023-08-20T01:22:59;99936.81;;;24.45;100.00
10668;BME280;5382;42.136;24.796;2023-08-20T01:25:42;99929.13;;;24.48;100.00
10668;BME280;5382;42.136;24.796;2023-08-20T01:28:31;99927.25;;;24.49;100.00
10668;BME280;5382;42.136;24.796;2023-08-20T01:31:00;99927.25;;;24.49;100.00
10668;BME280;5382;42.136;24.796;2023-08-20T01:33:28;99927.66;;;24.52;100.00
10668;BME280;5382;42.136;24.796;2023-08-20T01:35:55;99920.81;;;24.56;100.00
10668;BME280;5382;42.136;24.796;2023-08-20T01:38:22;99925.84;;;24.59;100.00
10668;BME280;5382;42.136;24.796;2023-08-20T01:40:50;99923.56;;;24.63;100.00
10668;BME280;5382;42.136;24.796;2023-08-20T01:43:16;99928.75;;;24.65;100.00
10668;BME280;5382;42.136;24.796;2023-08-20T01:45:45;99928.75;;;24.65;100.00
10668;BME280;5382;42.136;24.796;2023-08-20T01:48:12;99922.72;;;24.63;100.00
10668;BME280;5382;42.136;24.796;2023-08-20T01:50:39;99924.81;;;24.61;100.00
10668;BME280;5382;42.136;24.796;2023-08-20T01:53:06;99923.13;;;24.59;100.00
10668;BME280;5382;42.136;24.796;2023-08-20T01:55:34;99926.03;;;24.58;100.00
10668;BME280;5382;42.136;24.796;2023-08-20T01:58:01;99916.84;;;24.52;100.00
10668;BME280;5382;42.136;24.796;2023-08-20T02:00:28;99915.59;;;24.55;100.00
10668;BME280;5382;42.136;24.796;2023-08-20T02:02:57;99914.75;;;24.48;100.00
10668;BME280;5382;42.136;24.796;2023-08-20T02:05:24;99916.84;;;24.52;100.00
10668;BME280;5382;42.136;24.796;2023-08-20T02:07:51;99912.06;;;24.54;100.00
10668;BME280;5382;42.136;24.796;2023-08-20T02:10:17;99922.25;;;24.52;100.00
10668;BME280;5382;42.136;24.796;2023-08-20T02:12:44;99929.13;;;24.55;100.00
10668;BME280;5382;42.136;24.796;2023-08-20T02:15:11;99919.34;;;24.54;100.00
10668;BME280;5382;42.136;24.796;2023-08-20T02:17:38;99915.84;;;24.60;100.00
10668;BME280;5382;42.136;24.796;2023-08-20T02:20:07;99914.38;;;24.57;100.00
10668;BME280;5382;42.136;24.796;2023-08-20T02:22:35;99917.47;;;24.54;100.00
10668;BME280;5382;42.136;24.796;2023-08-20T02:25:03;99914.19;;;24.59;100.00
10668;BME280;5382;42.136;24.796;2023-08-20T02:27:30;99928.13;;;24.63;100.00
10668;BME280;5382;42.136;24.796;2023-08-20T02:29:57;99926.88;;;24.65;100.00
10668;BME280;5382;42.136;24.796;2023-08-20T02:32:24;99923.75;;;24.62;100.00
10668;BME280;5382;42.136;24.796;2023-08-20T02:34:51;99926.81;;;24.45;100.00
10668;BME280;5382;42.136;24.796;2023-08-20T02:37:20;99923.19;;;24.38;100.00
10668;BME280;5382;42.136;24.796;2023-08-20T02:39:47;99926.84;;;24.24;100.00
10668;BME280;5382;42.136;24.796;2023-08-20T02:42:13;99923.91;;;24.19;100.00
10668;BME280;5382;42.136;24.796;2023-08-20T02:44:40;99928.88;;;24.15;100.00
10668;BME280;5382;42.136;24.796;2023-08-20T02:47:07;99934.25;;;24.08;100.00
10668;BME280;5382;42.136;24.796;2023-08-20T02:49:34;99928.22;;;24.06;100.00
10668;BME280;5382;42.136;24.796;2023-08-20T02:52:01;99924.16;;;23.95;100.00
10668;BME280;5382;42.136;24.796;2023-08-20T02:54:29;99928.41;;;23.77;100.00
10668;BME280;5382;42.136;24.796;2023-08-20T02:56:57;99936.22;;;23.71;100.00
10668;BME280;5382;42.136;24.796;2023-08-20T02:59:24;99934.56;;;23.70;100.00
10668;BME280;5382;42.136;24.796;2023-08-20T03:01:51;99933.16;;;23.53;100.00
10668;BME280;5382;42.136;24.796;2023-08-20T03:04:18;99940.09;;;23.41;100.00
10668;BME280;5382;42.136;24.796;2023-08-20T03:06:45;99934.31;;;23.22;100.00
10668;BME280;5382;42.136;24.796;2023-08-20T03:09:11;99938.22;;;23.20;100.00
10668;BME280;5382;42.136;24.796;2023-08-20T03:11:40;99939.06;;;23.20;100.00
10668;BME280;5382;42.136;24.796;2023-08-20T03:14:06;99936.88;;;23.30;100.00
10668;BME280;5382;42.136;24.796;2023-08-20T03:16:33;99947.38;;;23.40;100.00
10668;BME280;5382;42.136;24.796;2023-08-20T03:19:00;99941.19;;;23.46;100.00
10668;BME280;5382;42.136;24.796;2023-08-20T03:21:28;99931.81;;;23.42;100.00
10668;BME280;5382;42.136;24.796;2023-08-20T03:23:54;99944.22;;;23.58;100.00
10668;BME280;5382;42.136;24.796;2023-08-20T03:26:21;99932.38;;;23.59;100.00
10668;BME280;5382;42.136;24.796;2023-08-20T03:28:49;99944.09;;;23.45;100.00
10668;BME280;5382;42.136;24.796;2023-08-20T03:31:17;99939.09;;;23.42;100.00
10668;BME280;5382;42.136;24.796;2023-08-20T03:33:44;99929.94;;;23.43;100.00
10668;BME280;5382;42.136;24.796;2023-08-20T03:36:11;99924.34;;;23.44;100.00
10668;BME280;5382;42.136;24.796;2023-08-20T03:38:38;99930.59;;;23.45;100.00
10668;BME280;5382;42.136;24.796;2023-08-20T03:41:05;99933.81;;;23.55;100.00
10668;BME280;5382;42.136;24.796;2023-08-20T03:43:32;99935.94;;;23.60;100.00
10668;BME280;5382;42.136;24.796;2023-08-20T03:46:01;99927.28;;;23.71;100.00
10668;BME280;5382;42.136;24.796;2023-08-20T03:48:28;99930.34;;;23.83;100.00
10668;BME280;5382;42.136;24.796;2023-08-20T03:50:55;99939.31;;;23.90;100.00
10668;BME280;5382;42.136;24.796;2023-08-20T03:53:22;99941.25;;;23.96;100.00
10668;BME280;5382;42.136;24.796;2023-08-20T03:55:49;99932.16;;;24.04;100.00
10668;BME280;5382;42.136;24.796;2023-08-20T03:58:16;99931.28;;;24.03;100.00
10668;BME280;5382;42.136;24.796;2023-08-20T04:00:44;99938.31;;;23.98;100.00
10668;BME280;5382;42.136;24.796;2023-08-20T04:03:12;99941.25;;;23.96;100.00
10668;BME280;5382;42.136;24.796;2023-08-20T04:05:40;99945.78;;;23.95;100.00
10668;BME280;5382;42.136;24.796;2023-08-20T04:08:06;99941.03;;;23.98;100.00
10668;BME280;5382;42.136;24.796;2023-08-20T04:10:33;99922.44;;;23.88;100.00
10668;BME280;5382;42.136;24.796;2023-08-20T04:13:01;99938.63;;;24.09;100.00
10668;BME280;5382;42.136;24.796;2023-08-20T04:15:27;99949.88;;;24.13;100.00
10668;BME280;5382;42.136;24.796;2023-08-20T04:17:54;99948.47;;;24.17;100.00
10668;BME280;5382;42.136;24.796;2023-08-20T04:20:22;99960.34;;;24.23;100.00
10668;BME280;5382;42.136;24.796;2023-08-20T04:22:49;99956.22;;;24.27;100.00
10668;BME280;5382;42.136;24.796;2023-08-20T04:25:16;99950.84;;;24.33;100.00
10668;BME280;5382;42.136;24.796;2023-08-20T04:27:43;99941.50;;;24.36;100.00
10668;BME280;5382;42.136;24.796;2023-08-20T04:30:11;99953.19;;;24.43;100.00
10668;BME280;5382;42.136;24.796;2023-08-20T04:32:38;99957.31;;;24.39;100.00
10668;BME280;5382;42.136;24.796;2023-08-20T04:35:05;99958.38;;;24.38;100.00
10668;BME280;5382;42.136;24.796;2023-08-20T04:37:34;99948.53;;;24.30;100.00
10668;BME280;5382;42.136;24.796;2023-08-20T04:40:00;99960.00;;;24.32;100.00
10668;BME280;5382;42.136;24.796;2023-08-20T04:42:30;99960.00;;;24.32;100.00
10668;BME280;5382;42.136;24.796;2023-08-20T04:44:56;99963.53;;;24.33;100.00
10668;BME280;5382;42.136;24.796;2023-08-20T04:47:23;99959.78;;;24.34;100.00
10668;BME280;5382;42.136;24.796;2023-08-20T04:49:50;99961.72;;;24.40;100.00
10668;BME280;5382;42.136;24.796;2023-08-20T04:52:17;99961.31;;;24.43;100.00
10668;BME280;5382;42.136;24.796;2023-08-20T04:54:46;99954.09;;;24.50;100.00
10668;BME280;5382;42.136;24.796;2023-08-20T04:57:12;99966.41;;;24.59;100.00
10668;BME280;5382;42.136;24.796;2023-08-20T04:59:39;99965.59;;;24.59;100.00
10668;BME280;5382;42.136;24.796;2023-08-20T05:02:08;99968.72;;;24.63;100.00
10668;BME280;5382;42.136;24.796;2023-08-20T05:04:35;99960.56;;;24.56;100.00
10668;BME280;5382;42.136;24.796;2023-08-20T05:07:02;99964.19;;;24.70;100.00
10668;BME280;5382;42.136;24.796;2023-08-20T05:09:29;99964.81;;;24.72;100.00
10668;BME280;5382;42.136;24.796;2023-08-20T05:11:57;99962.16;;;24.78;100.00
10668;BME280;5382;42.136;24.796;2023-08-20T05:14:24;99973.00;;;24.85;100.00
10668;BME280;5382;42.136;24.796;2023-08-20T05:16:50;99973.22;;;24.90;100.00
10668;BME280;5382;42.136;24.796;2023-08-20T05:19:17;99982.84;;;24.99;100.00
10668;BME280;5382;42.136;24.796;2023-08-20T05:21:44;99979.31;;;25.06;100.00
10668;BME280;5382;42.136;24.796;2023-08-20T05:24:11;99983.78;;;25.20;100.00
10668;BME280;5382;42.136;24.796;2023-08-20T05:26:38;99991.72;;;25.28;100.00
10668;BME280;5382;42.136;24.796;2023-08-20T05:29:06;99980.69;;;25.36;100.00
10668;BME280;5382;42.136;24.796;2023-08-20T05:31:33;100002.59;;;25.41;100.00
10668;BME280;5382;42.136;24.796;2023-08-20T05:34:00;99990.31;;;25.45;100.00
10668;BME280;5382;42.136;24.796;2023-08-20T05:36:27;99987.34;;;25.34;100.00
10668;BME280;5382;42.136;24.796;2023-08-20T05:38:54;99994.41;;;25.21;100.00
10668;BME280;5382;42.136;24.796;2023-08-20T05:41:21;99995.88;;;25.24;100.00
10668;BME280;5382;42.136;24.796;2023-08-20T05:43:48;99989.22;;;25.27;100.00
10668;BME280;5382;42.136;24.796;2023-08-20T05:46:16;99995.59;;;25.12;100.00
10668;BME280;5382;42.136;24.796;2023-08-20T05:48:43;99990.44;;;25.24;100.00
10668;BME280;5382;42.136;24.796;2023-08-20T05:51:09;99986.88;;;25.17;100.00
10668;BME280;5382;42.136;24.796;2023-08-20T05:53:36;99991.72;;;25.28;100.00
10668;BME280;5382;42.136;24.796;2023-08-20T05:56:03;99982.78;;;25.28;100.00
10668;BME280;5382;42.136;24.796;2023-08-20T05:58:30;99987.13;;;25.29;100.00
10668;BME280;5382;42.136;24.796;2023-08-20T06:00:57;99997.72;;;25.17;100.00
10668;BME280;5382;42.136;24.796;2023-08-20T06:03:25;99996.50;;;25.26;100.00
10668;BME280;5382;42.136;24.796;2023-08-20T06:05:52;99995.09;;;25.43;100.00
10668;BME280;5382;42.136;24.796;2023-08-20T06:08:19;99995.53;;;25.54;100.00
10668;BME280;5382;42.136;24.796;2023-08-20T06:10:46;99992.63;;;25.68;100.00
10668;BME280;5382;42.136;24.796;2023-08-20T06:13:12;99995.78;;;25.72;100.00
10668;BME280;5382;42.136;24.796;2023-08-20T06:15:39;99986.16;;;25.76;100.00
10668;BME280;5382;42.136;24.796;2023-08-20T06:18:06;99991.66;;;25.89;100.00
10668;BME280;5382;42.136;24.796;2023-08-20T06:20:34;99994.34;;;25.96;100.00
10668;BME280;5382;42.136;24.796;2023-08-20T06:23:01;99995.59;;;26.07;100.00
10668;BME280;5382;42.136;24.796;2023-08-20T06:25:28;99998.31;;;26.20;100.00
10668;BME280;5382;42.136;24.796;2023-08-20T06:27:55;99996.63;;;26.32;100.00
10668;BME280;5382;42.136;24.796;2023-08-20T06:30:22;99990.13;;;26.47;100.00
10668;BME280;5382;42.136;24.796;2023-08-20T06:32:49;99997.84;;;26.63;100.00
10668;BME280;5382;42.136;24.796;2023-08-20T06:35:16;100002.25;;;26.64;100.00
10668;BME280;5382;42.136;24.796;2023-08-20T06:37:45;100003.03;;;26.71;100.00
10668;BME280;5382;42.136;24.796;2023-08-20T06:40:11;100005.97;;;26.63;100.00
10668;BME280;5382;42.136;24.796;2023-08-20T06:42:39;100006.59;;;26.72;99.98
10668;BME280;5382;42.136;24.796;2023-08-20T06:45:06;100008.03;;;26.81;99.66
10668;BME280;5382;42.136;24.796;2023-08-20T06:47:34;100009.03;;;26.93;100.00
10668;BME280;5382;42.136;24.796;2023-08-20T06:50:01;100013.81;;;26.98;100.00
10668;BME280;5382;42.136;24.796;2023-08-20T06:52:28;100013.75;;;27.11;100.00
10668;BME280;5382;42.136;24.796;2023-08-20T06:54:56;100008.09;;;27.19;97.61
10668;BME280;5382;42.136;24.796;2023-08-20T06:57:23;100007.66;;;27.29;96.68
10668;BME280;5382;42.136;24.796;2023-08-20T06:59:50;99997.81;;;27.28;96.48
10668;BME280;5382;42.136;24.796;2023-08-20T07:02:16;100007.34;;;27.44;96.17
10668;BME280;5382;42.136;24.796;2023-08-20T07:04:43;100010.00;;;27.57;93.82
10668;BME280;5382;42.136;24.796;2023-08-20T07:07:11;100006.41;;;27.57;93.36
10668;BME280;5382;42.136;24.796;2023-08-20T07:09:38;100012.94;;;27.49;94.37
10668;BME280;5382;42.136;24.796;2023-08-20T07:12:07;100005.31;;;27.33;93.56
10668;BME280;5382;42.136;24.796;2023-08-20T07:14:34;100014.44;;;27.45;94.58
10668;BME280;5382;42.136;24.796;2023-08-20T07:17:01;100000.59;;;27.53;94.62
10668;BME280;5382;42.136;24.796;2023-08-20T07:19:28;100008.19;;;27.45;94.24
10668;BME280;5382;42.136;24.796;2023-08-20T07:21:55;100006.75;;;27.35;95.10
10668;BME280;5382;42.136;24.796;2023-08-20T07:24:22;99999.84;;;27.39;94.95
10668;BME280;5382;42.136;24.796;2023-08-20T07:26:51;100001.72;;;27.39;95.32
10668;BME280;5382;42.136;24.796;2023-08-20T07:29:19;99992.91;;;27.44;96.50
10668;BME280;5382;42.136;24.796;2023-08-20T07:31:46;100001.44;;;27.54;92.85
10668;BME280;5382;42.136;24.796;2023-08-20T07:34:13;100006.31;;;27.45;92.23
10668;BME280;5382;42.136;24.796;2023-08-20T07:36:39;99997.78;;;27.35;93.47
10668;BME280;5382;42.136;24.796;2023-08-20T07:39:06;100004.28;;;27.34;93.39
10668;BME280;5382;42.136;24.796;2023-08-20T07:41:34;99996.72;;;27.36;93.41
10668;BME280;5382;42.136;24.796;2023-08-20T07:44:00;99994.53;;;27.51;94.13
10668;BME280;5382;42.136;24.796;2023-08-20T07:46:29;100002.66;;;27.58;92.76
10668;BME280;5382;42.136;24.796;2023-08-20T07:48:56;99985.75;;;27.56;91.75
10668;BME280;5382;42.136;24.796;2023-08-20T07:51:22;99990.53;;;27.60;91.15
10668;BME280;5382;42.136;24.796;2023-08-20T07:53:49;99988.97;;;27.71;91.75
10668;BME280;5382;42.136;24.796;2023-08-20T07:56:16;99987.88;;;27.79;88.97
10668;BME280;5382;42.136;24.796;2023-08-20T07:58:43;99987.25;;;27.77;84.90
10668;BME280;5382;42.136;24.796;2023-08-20T08:01:10;99988.69;;;27.86;86.98
10668;BME280;5382;42.136;24.796;2023-08-20T08:03:40;99990.88;;;27.96;87.04
10668;BME280;5382;42.136;24.796;2023-08-20T08:06:07;99982.84;;;28.08;85.26
10668;BME280;5382;42.136;24.796;2023-08-20T08:08:34;99978.69;;;28.05;83.50
10668;BME280;5382;42.136;24.796;2023-08-20T08:11:01;99988.16;;;28.21;85.14
10668;BME280;5382;42.136;24.796;2023-08-20T08:13:28;99984.28;;;28.35;81.93
10668;BME280;5382;42.136;24.796;2023-08-20T08:15:54;99983.56;;;28.46;79.48
10668;BME280;5382;42.136;24.796;2023-08-20T08:18:21;99986.78;;;28.55;78.67
10668;BME280;5382;42.136;24.796;2023-08-20T08:20:49;99980.53;;;28.55;76.35
10668;BME280;5382;42.136;24.796;2023-08-20T08:23:16;99970.03;;;28.58;76.54
10668;BME280;5382;42.136;24.796;2023-08-20T08:25:43;99974.78;;;28.81;76.75
10668;BME280;5382;42.136;24.796;2023-08-20T08:28:10;99973.41;;;28.90;77.85
10668;BME280;5382;42.136;24.796;2023-08-20T08:30:37;99956.03;;;28.91;74.28
10668;BME280;5382;42.136;24.796;2023-08-20T08:33:05;99969.44;;;29.23;73.49
10668;BME280;5382;42.136;24.796;2023-08-20T08:35:32;99969.66;;;29.52;73.54
10668;BME280;5382;42.136;24.796;2023-08-20T08:38:00;99975.53;;;29.79;70.63
10668;BME280;5382;42.136;24.796;2023-08-20T08:40:29;99965.13;;;29.88;68.06
10668;BME280;5382;42.136;24.796;2023-08-20T08:42:56;99965.34;;;29.86;67.41
10668;BME280;5382;42.136;24.796;2023-08-20T08:45:23;99945.91;;;29.83;65.13
10668;BME280;5382;42.136;24.796;2023-08-20T08:47:50;99968.47;;;30.13;65.11
10668;BME280;5382;42.136;24.796;2023-08-20T08:50:19;99935.81;;;30.07;64.26
10668;BME280;5382;42.136;24.796;2023-08-20T08:52:46;99960.91;;;30.39;62.30
10668;BME280;5382;42.136;24.796;2023-08-20T08:55:15;99923.00;;;30.19;60.40
10668;BME280;5382;42.136;24.796;2023-08-20T08:57:42;99962.16;;;30.60;60.43
10668;BME280;5382;42.136;24.796;2023-08-20T09:00:10;99963.22;;;30.71;59.19
10668;BME280;5382;42.136;24.796;2023-08-20T09:02:36;99963.97;;;30.54;58.12
10668;BME280;5382;42.136;24.796;2023-08-20T09:05:05;99957.84;;;30.76;58.19
10668;BME280;5382;42.136;24.796;2023-08-20T09:07:32;99966.28;;;30.86;57.26
10668;BME280;5382;42.136;24.796;2023-08-20T09:09:59;99959.66;;;31.11;57.03
10668;BME280;5382;42.136;24.796;2023-08-20T09:12:27;99943.44;;;31.21;56.07
10668;BME280;5382;42.136;24.796;2023-08-20T09:14:54;99956.56;;;31.47;54.93
10668;BME280;5382;42.136;24.796;2023-08-20T09:17:25;99949.84;;;31.72;53.29
10668;BME280;5382;42.136;24.796;2023-08-20T09:19:54;99944.50;;;31.94;51.51
10668;BME280;5382;42.136;24.796;2023-08-20T09:22:21;99941.28;;;32.19;51.99
10668;BME280;5382;42.136;24.796;2023-08-20T09:24:53;99937.09;;;32.50;51.67
10668;BME280;5382;42.136;24.796;2023-08-20T09:27:20;99941.47;;;32.73;49.31
10668;BME280;5382;42.136;24.796;2023-08-20T09:29:50;99937.72;;;32.79;48.18
10668;BME280;5382;42.136;24.796;2023-08-20T09:32:18;99927.53;;;32.75;47.60
10668;BME280;5382;42.136;24.796;2023-08-20T09:34:46;99938.63;;;33.07;47.00
10668;BME280;5382;42.136;24.796;2023-08-20T09:37:15;99932.03;;;33.08;47.45
10668;BME280;5382;42.136;24.796;2023-08-20T09:39:42;99937.97;;;33.27;47.14
10668;BME280;5382;42.136;24.796;2023-08-20T09:42:10;99935.34;;;33.37;46.60
10668;BME280;5382;42.136;24.796;2023-08-20T09:44:38;99931.56;;;33.43;45.83
10668;BME280;5382;42.136;24.796;2023-08-20T09:47:08;99922.97;;;33.62;45.34
10668;BME280;5382;42.136;24.796;2023-08-20T09:49:39;99917.91;;;33.81;44.70
10668;BME280;5382;42.136;24.796;2023-08-20T09:52:09;99906.13;;;33.85;45.40
10668;BME280;5382;42.136;24.796;2023-08-20T09:54:50;99906.66;;;33.18;45.84
10668;BME280;5382;42.136;24.796;2023-08-20T09:57:26;99901.06;;;32.86;46.18
10668;BME280;5382;42.136;24.796;2023-08-20T09:59:53;99899.19;;;32.64;46.74
10668;BME280;5382;42.136;24.796;2023-08-20T10:02:22;99898.16;;;32.70;46.42
10668;BME280;5382;42.136;24.796;2023-08-20T10:04:51;99854.88;;;32.28;45.78
10668;BME280;5382;42.136;24.796;2023-08-20T10:07:18;99910.84;;;32.76;45.52
10668;BME280;5382;42.136;24.796;2023-08-20T10:09:46;99904.72;;;33.18;44.82
10668;BME280;5382;42.136;24.796;2023-08-20T10:12:16;99901.84;;;33.62;44.53
10668;BME280;5382;42.136;24.796;2023-08-20T10:14:43;99893.78;;;33.88;44.08
10668;BME280;5382;42.136;24.796;2023-08-20T10:17:11;99892.38;;;34.23;42.45
10668;BME280;5382;42.136;24.796;2023-08-20T10:19:42;99892.50;;;34.53;42.39
10668;BME280;5382;42.136;24.796;2023-08-20T10:22:09;99890.66;;;34.69;42.52
10668;BME280;5382;42.136;24.796;2023-08-20T10:24:41;99877.16;;;34.58;42.75
10668;BME280;5382;42.136;24.796;2023-08-20T10:27:09;99878.19;;;34.51;42.41
10668;BME280;5382;42.136;24.796;2023-08-20T10:29:37;99879.00;;;34.42;42.06
10668;BME280;5382;42.136;24.796;2023-08-20T10:32:09;99877.03;;;34.32;42.41
10668;BME280;5382;42.136;24.796;2023-08-20T10:34:37;99878.59;;;34.18;41.93
10668;BME280;5382;42.136;24.796;2023-08-20T10:37:10;99872.56;;;34.16;42.49
10668;BME280;5382;42.136;24.796;2023-08-20T10:39:38;99855.34;;;34.41;41.63
10668;BME280;5382;42.136;24.796;2023-08-20T10:42:22;99867.84;;;34.69;42.21
10668;BME280;5382;42.136;24.796;2023-08-20T10:45:04;99862.69;;;35.03;41.22
10668;BME280;5382;42.136;24.796;2023-08-20T10:47:41;99859.66;;;35.97;40.66
10668;BME280;5382;42.136;24.796;2023-08-20T10:50:09;99862.94;;;36.79;39.64
10668;BME280;5382;42.136;24.796;2023-08-20T10:52:40;99856.84;;;37.22;38.15
10668;BME280;5382;42.136;24.796;2023-08-20T10:55:07;99859.16;;;37.09;38.02
10668;BME280;5382;42.136;24.796;2023-08-20T10:57:35;99850.88;;;37.09;37.56
10668;BME280;5382;42.136;24.796;2023-08-20T11:00:04;99856.91;;;37.46;37.47
10668;BME280;5382;42.136;24.796;2023-08-20T11:02:37;99846.84;;;37.65;37.52
10668;BME280;5382;42.136;24.796;2023-08-20T11:05:16;99840.44;;;37.99;36.46
10668;BME280;5382;42.136;24.796;2023-08-20T11:07:45;99842.44;;;37.30;36.24
10668;BME280;5382;42.136;24.796;2023-08-20T11:10:13;99841.00;;;36.98;37.10
10668;BME280;5382;42.136;24.796;2023-08-20T11:12:40;99840.31;;;37.22;36.24
10668;BME280;5382;42.136;24.796;2023-08-20T11:15:09;99831.97;;;37.61;36.34
10668;BME280;5382;42.136;24.796;2023-08-20T11:17:40;99832.41;;;38.22;35.39
10668;BME280;5382;42.136;24.796;2023-08-20T11:20:07;99821.91;;;38.24;35.40
10668;BME280;5382;42.136;24.796;2023-08-20T11:22:35;99827.53;;;38.56;34.96
10668;BME280;5382;42.136;24.796;2023-08-20T11:25:04;99820.13;;;38.52;34.77
10668;BME280;5382;42.136;24.796;2023-08-20T11:27:32;99815.66;;;38.75;33.52
10668;BME280;5382;42.136;24.796;2023-08-20T11:29:59;99818.72;;;38.54;33.85
10668;BME280;5382;42.136;24.796;2023-08-20T11:32:25;99815.22;;;38.87;33.37
10668;BME280;5382;42.136;24.796;2023-08-20T11:34:52;99820.19;;;39.22;33.24
10668;BME280;5382;42.136;24.796;2023-08-20T11:37:21;99818.91;;;39.94;32.46
10668;BME280;5382;42.136;24.796;2023-08-20T11:39:48;99805.00;;;40.86;31.51
10668;BME280;5382;42.136;24.796;2023-08-20T11:42:16;99786.34;;;41.54;30.94
10668;BME280;5382;42.136;24.796;2023-08-20T11:44:44;99793.47;;;41.46;30.65
10668;BME280;5382;42.136;24.796;2023-08-20T11:47:15;99798.59;;;41.30;31.06
10668;BME280;5382;42.136;24.796;2023-08-20T11:49:43;99793.84;;;41.22;30.98
10668;BME280;5382;42.136;24.796;2023-08-20T11:52:10;99791.38;;;41.83;30.81
10668;BME280;5382;42.136;24.796;2023-08-20T11:54:38;99780.81;;;42.02;30.40
10668;BME280;5382;42.136;24.796;2023-08-20T11:57:06;99781.19;;;40.71;31.17
10668;BME280;5382;42.136;24.796;2023-08-20T11:59:34;99771.59;;;40.99;31.04
10668;BME280;5382;42.136;24.796;2023-08-20T12:02:02;99783.91;;;41.07;30.75
10668;BME280;5382;42.136;24.796;2023-08-20T12:04:30;99780.59;;;40.60;30.42
10668;BME280;5382;42.136;24.796;2023-08-20T12:07:04;99783.16;;;40.34;30.66
10668;BME280;5382;42.136;24.796;2023-08-20T12:09:32;99774.97;;;40.88;30.41
10668;BME280;5382;42.136;24.796;2023-08-20T12:11:59;99771.84;;;41.34;30.18
10668;BME280;5382;42.136;24.796;2023-08-20T12:14:26;99778.44;;;40.93;30.34
10668;BME280;5382;42.136;24.796;2023-08-20T12:16:55;99763.25;;;40.54;30.14
10668;BME280;5382;42.136;24.796;2023-08-20T12:19:22;99768.22;;;41.03;31.01
10668;BME280;5382;42.136;24.796;2023-08-20T12:21:49;99766.00;;;41.84;29.29
10668;BME280;5382;42.136;24.796;2023-08-20T12:24:16;99761.56;;;41.35;29.34
10668;BME280;5382;42.136;24.796;2023-08-20T12:26:44;99760.88;;;40.84;29.56
10668;BME280;5382;42.136;24.796;2023-08-20T12:29:11;99720.56;;;40.42;30.48
10668;BME280;5382;42.136;24.796;2023-08-20T12:31:38;99742.94;;;41.35;29.91
10668;BME280;5382;42.136;24.796;2023-08-20T12:34:07;99742.75;;;41.72;29.48
10668;BME280;5382;42.136;24.796;2023-08-20T12:36:34;99746.38;;;42.38;28.86
10668;BME280;5382;42.136;24.796;2023-08-20T12:39:01;99744.13;;;43.31;27.81
10668;BME280;5382;42.136;24.796;2023-08-20T12:41:30;99741.28;;;43.87;27.01
10668;BME280;5382;42.136;24.796;2023-08-20T12:43:57;99731.03;;;44.62;26.32
10668;BME280;5382;42.136;24.796;2023-08-20T12:46:24;99732.00;;;44.67;26.24
10668;BME280;5382;42.136;24.796;2023-08-20T12:48:51;99740.19;;;43.79;27.28
10668;BME280;5382;42.136;24.796;2023-08-20T12:51:19;99723.09;;;44.31;26.25
10668;BME280;5382;42.136;24.796;2023-08-20T12:53:46;99720.63;;;44.51;26.20
10668;BME280;5382;42.136;24.796;2023-08-20T12:56:13;99721.66;;;45.00;25.92
10668;BME280;5382;42.136;24.796;2023-08-20T12:58:41;99720.38;;;45.10;25.83